sensor_id;sensor_type;location;lat;lon;timestamp;P1;durP1;ratioP1;P2;durP2;ratioP2
22622;SDS011;11478;51.094;7.030;2023-04-03T00:01:36;40.53;;;10.88;;
22622;SDS011;11478;51.094;7.030;2023-04-03T00:04:04;13.13;;;10.13;;
22622;SDS011;11478;51.094;7.030;2023-04-03T00:06:43;15.35;;;10.15;;
22622;SDS011;11478;51.094;7.030;2023-04-03T00:09:08;12.88;;;9.60;;
22622;SDS011;11478;51.094;7.030;2023-04-03T00:14:10;11.70;;;9.15;;
22622;SDS011;11478;51.094;7.030;2023-04-03T00:16:36;12.80;;;9.40;;
22622;SDS011;11478;51.094;7.030;2023-04-03T00:19:02;13.13;;;9.05;;
22622;SDS011;11478;51.094;7.030;2023-04-03T00:21:28;10.88;;;9.60;;
22622;SDS011;11478;51.094;7.030;2023-04-03T00:23:53;12.80;;;9.20;;
22622;SDS011;11478;51.094;7.030;2023-04-03T00:26:30;10.50;;;9.10;;
22622;SDS011;11478;51.094;7.030;2023-04-03T00:28:55;12.25;;;9.02;;
22622;SDS011;11478;51.094;7.030;2023-04-03T00:31:25;12.02;;;8.60;;
22622;SDS011;11478;51.094;7.030;2023-04-03T00:33:51;12.32;;;8.93;;
22622;SDS011;11478;51.094;7.030;2023-04-03T00:36:17;11.85;;;8.50;;
22622;SDS011;11478;51.094;7.030;2023-04-03T00:38:43;14.10;;;9.02;;
22622;SDS011;11478;51.094;7.030;2023-04-03T00:41:15;15.32;;;9.50;;
22622;SDS011;11478;51.094;7.030;2023-04-03T00:43:41;12.98;;;9.88;;
22622;SDS011;11478;51.094;7.030;2023-04-03T00:46:13;13.38;;;9.52;;
22622;SDS011;11478;51.094;7.030;2023-04-03T00:48:45;13.52;;;9.73;;
22622;SDS011;11478;51.094;7.030;2023-04-03T00:51:14;13.63;;;9.63;;
22622;SDS011;11478;51.094;7.030;2023-04-03T00:53:49;12.90;;;9.88;;
22622;SDS011;11478;51.094;7.030;2023-04-03T00:56:21;14.15;;;10.75;;
22622;SDS011;11478;51.094;7.030;2023-04-03T00:58:59;13.73;;;10.77;;
22622;SDS011;11478;51.094;7.030;2023-04-03T01:01:42;11.85;;;9.65;;
22622;SDS011;11478;51.094;7.030;2023-04-03T01:06:54;15.18;;;10.82;;
22622;SDS011;11478;51.094;7.030;2023-04-03T01:09:25;12.93;;;9.65;;
22622;SDS011;11478;51.094;7.030;2023-04-03T01:11:51;19.02;;;10.75;;
22622;SDS011;11478;51.094;7.030;2023-04-03T01:14:17;12.98;;;10.70;;
22622;SDS011;11478;51.094;7.030;2023-04-03T01:16:50;13.30;;;10.80;;
22622;SDS011;11478;51.094;7.030;2023-04-03T01:19:20;12.20;;;10.60;;
22622;SDS011;11478;51.094;7.030;2023-04-03T01:24:42;12.85;;;10.45;;
22622;SDS011;11478;51.094;7.030;2023-04-03T01:27:22;14.40;;;10.23;;
22622;SDS011;11478;51.094;7.030;2023-04-03T01:29:48;12.38;;;10.13;;
22622;SDS011;11478;51.094;7.030;2023-04-03T01:32:16;13.95;;;9.80;;
22622;SDS011;11478;51.094;7.030;2023-04-03T01:34:42;13.00;;;10.00;;
22622;SDS011;11478;51.094;7.030;2023-04-03T01:37:14;11.07;;;9.73;;
22622;SDS011;11478;51.094;7.030;2023-04-03T01:39:40;11.35;;;10.13;;
22622;SDS011;11478;51.094;7.030;2023-04-03T01:42:07;29.83;;;10.30;;
22622;SDS011;11478;51.094;7.030;2023-04-03T01:44:33;23.25;;;11.32;;
22622;SDS011;11478;51.094;7.030;2023-04-03T01:47:05;13.52;;;10.80;;
22622;SDS011;11478;51.094;7.030;2023-04-03T01:49:32;15.75;;;11.25;;
22622;SDS011;11478;51.094;7.030;2023-04-03T01:51:58;12.50;;;10.38;;
22622;SDS011;11478;51.094;7.030;2023-04-03T01:54:23;15.93;;;10.02;;
22622;SDS011;11478;51.094;7.030;2023-04-03T01:57:05;13.88;;;10.48;;
22622;SDS011;11478;51.094;7.030;2023-04-03T02:02:01;12.32;;;10.30;;
22622;SDS011;11478;51.094;7.030;2023-04-03T02:06:55;12.30;;;10.57;;
22622;SDS011;11478;51.094;7.030;2023-04-03T02:09:29;14.27;;;10.18;;
22622;SDS011;11478;51.094;7.030;2023-04-03T02:16:52;15.23;;;9.65;;
22622;SDS011;11478;51.094;7.030;2023-04-03T02:19:18;26.08;;;11.05;;
22622;SDS011;11478;51.094;7.030;2023-04-03T02:21:44;18.30;;;12.18;;
22622;SDS011;11478;51.094;7.030;2023-04-03T02:24:16;15.38;;;11.43;;
22622;SDS011;11478;51.094;7.030;2023-04-03T02:26:42;41.85;;;12.90;;
22622;SDS011;11478;51.094;7.030;2023-04-03T02:29:09;65.07;;;12.60;;
22622;SDS011;11478;51.094;7.030;2023-04-03T02:31:35;31.05;;;12.32;;
22622;SDS011;11478;51.094;7.030;2023-04-03T02:34:01;48.22;;;13.05;;
22622;SDS011;11478;51.094;7.030;2023-04-03T02:36:27;16.52;;;11.98;;
22622;SDS011;11478;51.094;7.030;2023-04-03T02:38:52;13.73;;;11.73;;
22622;SDS011;11478;51.094;7.030;2023-04-03T02:41:18;14.68;;;10.93;;
22622;SDS011;11478;51.094;7.030;2023-04-03T02:43:47;16.27;;;11.38;;
22622;SDS011;11478;51.094;7.030;2023-04-03T02:46:12;30.48;;;11.80;;
22622;SDS011;11478;51.094;7.030;2023-04-03T02:48:42;17.73;;;10.80;;
22622;SDS011;11478;51.094;7.030;2023-04-03T02:51:08;14.00;;;10.30;;
22622;SDS011;11478;51.094;7.030;2023-04-03T02:53:35;14.88;;;10.18;;
22622;SDS011;11478;51.094;7.030;2023-04-03T02:56:01;15.27;;;10.52;;
22622;SDS011;11478;51.094;7.030;2023-04-03T02:58:26;12.80;;;10.48;;
22622;SDS011;11478;51.094;7.030;2023-04-03T03:00:53;15.15;;;10.38;;
22622;SDS011;11478;51.094;7.030;2023-04-03T03:03:19;13.30;;;9.90;;
22622;SDS011;11478;51.094;7.030;2023-04-03T03:05:45;14.77;;;10.10;;
22622;SDS011;11478;51.094;7.030;2023-04-03T03:08:10;12.52;;;9.95;;
22622;SDS011;11478;51.094;7.030;2023-04-03T03:10:36;13.52;;;9.65;;
22622;SDS011;11478;51.094;7.030;2023-04-03T03:13:03;15.32;;;11.10;;
22622;SDS011;11478;51.094;7.030;2023-04-03T03:15:29;13.52;;;10.35;;
22622;SDS011;11478;51.094;7.030;2023-04-03T03:17:55;14.82;;;10.45;;
22622;SDS011;11478;51.094;7.030;2023-04-03T03:20:21;15.38;;;10.32;;
22622;SDS011;11478;51.094;7.030;2023-04-03T03:22:56;15.45;;;10.20;;
22622;SDS011;11478;51.094;7.030;2023-04-03T03:25:22;16.27;;;10.35;;
22622;SDS011;11478;51.094;7.030;2023-04-03T03:27:48;13.52;;;10.10;;
22622;SDS011;11478;51.094;7.030;2023-04-03T03:30:14;23.33;;;10.98;;
22622;SDS011;11478;51.094;7.030;2023-04-03T03:32:50;14.50;;;10.52;;
22622;SDS011;11478;51.094;7.030;2023-04-03T03:35:18;14.93;;;10.18;;
22622;SDS011;11478;51.094;7.030;2023-04-03T03:37:44;17.13;;;11.52;;
22622;SDS011;11478;51.094;7.030;2023-04-03T03:40:10;18.45;;;11.05;;
22622;SDS011;11478;51.094;7.030;2023-04-03T03:42:38;17.55;;;10.15;;
22622;SDS011;11478;51.094;7.030;2023-04-03T03:45:04;12.48;;;10.27;;
22622;SDS011;11478;51.094;7.030;2023-04-03T03:47:31;12.65;;;10.50;;
22622;SDS011;11478;51.094;7.030;2023-04-03T03:50:00;12.05;;;10.43;;
22622;SDS011;11478;51.094;7.030;2023-04-03T03:52:27;15.05;;;10.85;;
22622;SDS011;11478;51.094;7.030;2023-04-03T03:54:53;15.35;;;11.15;;
22622;SDS011;11478;51.094;7.030;2023-04-03T03:57:18;16.98;;;9.75;;
22622;SDS011;11478;51.094;7.030;2023-04-03T03:59:44;15.98;;;10.73;;
22622;SDS011;11478;51.094;7.030;2023-04-03T04:02:10;14.98;;;10.30;;
22622;SDS011;11478;51.094;7.030;2023-04-03T04:04:42;14.55;;;10.90;;
22622;SDS011;11478;51.094;7.030;2023-04-03T04:07:08;14.73;;;10.25;;
22622;SDS011;11478;51.094;7.030;2023-04-03T04:09:51;16.40;;;10.48;;
22622;SDS011;11478;51.094;7.030;2023-04-03T04:12:17;16.55;;;10.63;;
22622;SDS011;11478;51.094;7.030;2023-04-03T04:14:44;13.50;;;10.10;;
22622;SDS011;11478;51.094;7.030;2023-04-03T04:17:12;16.92;;;10.15;;
22622;SDS011;11478;51.094;7.030;2023-04-03T04:19:45;14.32;;;11.00;;
22622;SDS011;11478;51.094;7.030;2023-04-03T04:22:11;12.57;;;10.00;;
22622;SDS011;11478;51.094;7.030;2023-04-03T04:24:41;15.05;;;10.07;;
22622;SDS011;11478;51.094;7.030;2023-04-03T04:27:07;15.85;;;9.85;;
22622;SDS011;11478;51.094;7.030;2023-04-03T04:29:36;13.38;;;9.57;;
22622;SDS011;11478;51.094;7.030;2023-04-03T04:32:03;13.07;;;8.75;;
22622;SDS011;11478;51.094;7.030;2023-04-03T04:34:40;14.23;;;8.77;;
22622;SDS011;11478;51.094;7.030;2023-04-03T04:37:05;15.00;;;8.93;;
22622;SDS011;11478;51.094;7.030;2023-04-03T04:39:32;14.15;;;9.05;;
22622;SDS011;11478;51.094;7.030;2023-04-03T04:42:01;15.85;;;9.57;;
22622;SDS011;11478;51.094;7.030;2023-04-03T04:44:39;10.25;;;8.55;;
22622;SDS011;11478;51.094;7.030;2023-04-03T04:47:05;15.48;;;9.18;;
22622;SDS011;11478;51.094;7.030;2023-04-03T04:49:31;16.83;;;8.77;;
22622;SDS011;11478;51.094;7.030;2023-04-03T04:51:57;9.07;;;8.10;;
22622;SDS011;11478;51.094;7.030;2023-04-03T04:54:24;10.43;;;8.48;;
22622;SDS011;11478;51.094;7.030;2023-04-03T04:56:50;11.73;;;8.15;;
22622;SDS011;11478;51.094;7.030;2023-04-03T04:59:16;12.07;;;8.32;;
22622;SDS011;11478;51.094;7.030;2023-04-03T05:01:44;17.63;;;8.85;;
22622;SDS011;11478;51.094;7.030;2023-04-03T05:04:10;16.50;;;8.50;;
22622;SDS011;11478;51.094;7.030;2023-04-03T05:06:37;12.98;;;7.90;;
22622;SDS011;11478;51.094;7.030;2023-04-03T05:09:03;12.18;;;7.95;;
22622;SDS011;11478;51.094;7.030;2023-04-03T05:11:31;15.52;;;7.90;;
22622;SDS011;11478;51.094;7.030;2023-04-03T05:13:56;13.77;;;7.60;;
22622;SDS011;11478;51.094;7.030;2023-04-03T05:16:23;12.27;;;8.32;;
22622;SDS011;11478;51.094;7.030;2023-04-03T05:18:49;14.60;;;7.45;;
22622;SDS011;11478;51.094;7.030;2023-04-03T05:21:16;16.00;;;9.05;;
22622;SDS011;11478;51.094;7.030;2023-04-03T05:23:43;26.48;;;17.92;;
22622;SDS011;11478;51.094;7.030;2023-04-03T05:26:10;20.27;;;11.50;;
22622;SDS011;11478;51.094;7.030;2023-04-03T05:28:35;14.55;;;7.60;;
22622;SDS011;11478;51.094;7.030;2023-04-03T05:31:02;13.77;;;8.05;;
22622;SDS011;11478;51.094;7.030;2023-04-03T05:33:27;32.92;;;6.95;;
22622;SDS011;11478;51.094;7.030;2023-04-03T05:35:54;15.63;;;6.68;;
22622;SDS011;11478;51.094;7.030;2023-04-03T05:38:20;11.15;;;6.05;;
22622;SDS011;11478;51.094;7.030;2023-04-03T05:40:50;11.02;;;6.65;;
22622;SDS011;11478;51.094;7.030;2023-04-03T05:43:16;13.63;;;6.78;;
22622;SDS011;11478;51.094;7.030;2023-04-03T05:45:44;9.27;;;6.00;;
22622;SDS011;11478;51.094;7.030;2023-04-03T05:48:10;11.45;;;6.13;;
22622;SDS011;11478;51.094;7.030;2023-04-03T05:50:36;7.13;;;6.00;;
22622;SDS011;11478;51.094;7.030;2023-04-03T05:53:06;11.18;;;6.10;;
22622;SDS011;11478;51.094;7.030;2023-04-03T05:55:43;9.18;;;5.88;;
22622;SDS011;11478;51.094;7.030;2023-04-03T05:58:10;11.05;;;5.90;;
22622;SDS011;11478;51.094;7.030;2023-04-03T06:00:35;8.63;;;5.28;;
22622;SDS011;11478;51.094;7.030;2023-04-03T06:05:31;12.52;;;5.50;;
22622;SDS011;11478;51.094;7.030;2023-04-03T06:07:58;15.02;;;5.50;;
22622;SDS011;11478;51.094;7.030;2023-04-03T06:10:24;9.82;;;5.30;;
22622;SDS011;11478;51.094;7.030;2023-04-03T06:12:50;8.48;;;5.38;;
22622;SDS011;11478;51.094;7.030;2023-04-03T06:15:16;8.45;;;5.65;;
22622;SDS011;11478;51.094;7.030;2023-04-03T06:20:27;9.55;;;5.97;;
22622;SDS011;11478;51.094;7.030;2023-04-03T06:22:54;6.20;;;4.40;;
22622;SDS011;11478;51.094;7.030;2023-04-03T06:25:20;48.28;;;23.23;;
22622;SDS011;11478;51.094;7.030;2023-04-03T06:27:47;12.00;;;4.72;;
22622;SDS011;11478;51.094;7.030;2023-04-03T06:30:13;7.18;;;3.63;;
22622;SDS011;11478;51.094;7.030;2023-04-03T06:32:39;9.65;;;3.88;;
22622;SDS011;11478;51.094;7.030;2023-04-03T06:35:05;9.27;;;4.28;;
22622;SDS011;11478;51.094;7.030;2023-04-03T06:37:33;4.85;;;3.20;;
22622;SDS011;11478;51.094;7.030;2023-04-03T06:39:59;6.45;;;3.40;;
22622;SDS011;11478;51.094;7.030;2023-04-03T06:42:28;10.27;;;3.80;;
22622;SDS011;11478;51.094;7.030;2023-04-03T06:45:02;6.13;;;3.35;;
22622;SDS011;11478;51.094;7.030;2023-04-03T06:47:30;10.52;;;3.63;;
22622;SDS011;11478;51.094;7.030;2023-04-03T06:49:55;8.05;;;3.35;;
22622;SDS011;11478;51.094;7.030;2023-04-03T06:52:30;12.18;;;3.50;;
22622;SDS011;11478;51.094;7.030;2023-04-03T06:54:56;10.93;;;2.70;;
22622;SDS011;11478;51.094;7.030;2023-04-03T06:57:32;10.45;;;2.75;;
22622;SDS011;11478;51.094;7.030;2023-04-03T07:00:04;6.30;;;2.38;;
22622;SDS011;11478;51.094;7.030;2023-04-03T07:02:32;7.50;;;2.50;;
22622;SDS011;11478;51.094;7.030;2023-04-03T07:05:04;8.05;;;3.03;;
22622;SDS011;11478;51.094;7.030;2023-04-03T07:07:35;7.97;;;2.22;;
22622;SDS011;11478;51.094;7.030;2023-04-03T07:10:04;4.53;;;2.10;;
22622;SDS011;11478;51.094;7.030;2023-04-03T07:12:31;9.52;;;2.20;;
22622;SDS011;11478;51.094;7.030;2023-04-03T07:15:00;4.93;;;2.17;;
22622;SDS011;11478;51.094;7.030;2023-04-03T07:17:26;7.47;;;2.58;;
22622;SDS011;11478;51.094;7.030;2023-04-03T07:20:06;5.75;;;2.10;;
22622;SDS011;11478;51.094;7.030;2023-04-03T07:22:46;7.15;;;2.53;;
22622;SDS011;11478;51.094;7.030;2023-04-03T07:25:15;6.38;;;2.22;;
22622;SDS011;11478;51.094;7.030;2023-04-03T07:27:41;5.68;;;2.40;;
22622;SDS011;11478;51.094;7.030;2023-04-03T07:30:21;8.75;;;2.15;;
22622;SDS011;11478;51.094;7.030;2023-04-03T07:32:48;4.93;;;1.95;;
22622;SDS011;11478;51.094;7.030;2023-04-03T07:35:13;4.55;;;1.92;;
22622;SDS011;11478;51.094;7.030;2023-04-03T07:37:40;5.32;;;1.85;;
22622;SDS011;11478;51.094;7.030;2023-04-03T07:40:14;5.80;;;2.20;;
22622;SDS011;11478;51.094;7.030;2023-04-03T07:42:40;6.07;;;2.28;;
22622;SDS011;11478;51.094;7.030;2023-04-03T07:45:07;6.68;;;2.00;;
22622;SDS011;11478;51.094;7.030;2023-04-03T07:47:33;5.57;;;2.20;;
22622;SDS011;11478;51.094;7.030;2023-04-03T07:52:32;6.25;;;2.08;;
22622;SDS011;11478;51.094;7.030;2023-04-03T07:55:02;5.30;;;1.70;;
22622;SDS011;11478;51.094;7.030;2023-04-03T07:57:28;4.85;;;1.85;;
22622;SDS011;11478;51.094;7.030;2023-04-03T08:02:35;3.65;;;1.48;;
22622;SDS011;11478;51.094;7.030;2023-04-03T08:05:02;4.70;;;1.77;;
22622;SDS011;11478;51.094;7.030;2023-04-03T08:07:32;4.40;;;1.77;;
22622;SDS011;11478;51.094;7.030;2023-04-03T08:09:58;4.35;;;1.75;;
22622;SDS011;11478;51.094;7.030;2023-04-03T08:12:33;5.18;;;1.80;;
22622;SDS011;11478;51.094;7.030;2023-04-03T08:15:04;2.78;;;1.50;;
22622;SDS011;11478;51.094;7.030;2023-04-03T08:17:33;5.28;;;1.60;;
22622;SDS011;11478;51.094;7.030;2023-04-03T08:20:00;4.28;;;1.50;;
22622;SDS011;11478;51.094;7.030;2023-04-03T08:25:03;3.22;;;1.60;;
22622;SDS011;11478;51.094;7.030;2023-04-03T08:30:09;4.03;;;1.60;;
22622;SDS011;11478;51.094;7.030;2023-04-03T08:32:35;4.47;;;1.75;;
22622;SDS011;11478;51.094;7.030;2023-04-03T08:35:04;3.33;;;1.50;;
22622;SDS011;11478;51.094;7.030;2023-04-03T08:37:35;3.17;;;1.38;;
22622;SDS011;11478;51.094;7.030;2023-04-03T08:40:02;4.28;;;1.52;;
22622;SDS011;11478;51.094;7.030;2023-04-03T08:42:45;4.47;;;1.50;;
22622;SDS011;11478;51.094;7.030;2023-04-03T08:45:21;4.28;;;1.50;;
22622;SDS011;11478;51.094;7.030;2023-04-03T08:48:24;4.28;;;1.48;;
22622;SDS011;11478;51.094;7.030;2023-04-03T08:50:59;3.13;;;1.30;;
22622;SDS011;11478;51.094;7.030;2023-04-03T08:53:31;2.75;;;1.40;;
22622;SDS011;11478;51.094;7.030;2023-04-03T08:56:05;4.85;;;1.15;;
22622;SDS011;11478;51.094;7.030;2023-04-03T08:58:56;3.05;;;1.38;;
22622;SDS011;11478;51.094;7.030;2023-04-03T09:01:55;2.20;;;1.27;;
22622;SDS011;11478;51.094;7.030;2023-04-03T09:04:15;2.38;;;1.15;;
22622;SDS011;11478;51.094;7.030;2023-04-03T09:06:54;4.45;;;1.40;;
22622;SDS011;11478;51.094;7.030;2023-04-03T09:09:39;3.05;;;1.52;;
22622;SDS011;11478;51.094;7.030;2023-04-03T09:15:20;4.25;;;1.90;;
22622;SDS011;11478;51.094;7.030;2023-04-03T09:17:59;3.37;;;1.57;;
22622;SDS011;11478;51.094;7.030;2023-04-03T09:20:39;3.30;;;1.48;;
22622;SDS011;11478;51.094;7.030;2023-04-03T09:26:09;3.80;;;1.77;;
22622;SDS011;11478;51.094;7.030;2023-04-03T09:28:45;4.32;;;1.40;;
22622;SDS011;11478;51.094;7.030;2023-04-03T09:31:16;4.82;;;1.60;;
22622;SDS011;11478;51.094;7.030;2023-04-03T09:33:45;3.35;;;1.55;;
22622;SDS011;11478;51.094;7.030;2023-04-03T09:36:37;3.70;;;1.65;;
22622;SDS011;11478;51.094;7.030;2023-04-03T09:39:19;5.75;;;1.55;;
22622;SDS011;11478;51.094;7.030;2023-04-03T09:47:17;2.75;;;1.10;;
22622;SDS011;11478;51.094;7.030;2023-04-03T09:49:43;2.30;;;1.02;;
22622;SDS011;11478;51.094;7.030;2023-04-03T09:55:22;3.08;;;1.23;;
22622;SDS011;11478;51.094;7.030;2023-04-03T09:57:57;2.67;;;1.10;;
22622;SDS011;11478;51.094;7.030;2023-04-03T10:03:22;1.80;;;1.08;;
22622;SDS011;11478;51.094;7.030;2023-04-03T10:05:51;3.63;;;1.10;;
22622;SDS011;11478;51.094;7.030;2023-04-03T10:08:22;5.05;;;1.15;;
22622;SDS011;11478;51.094;7.030;2023-04-03T10:11:09;1.88;;;1.13;;
22622;SDS011;11478;51.094;7.030;2023-04-03T10:16:18;2.50;;;1.13;;
22622;SDS011;11478;51.094;7.030;2023-04-03T10:21:55;2.53;;;1.10;;
22622;SDS011;11478;51.094;7.030;2023-04-03T10:41:07;2.33;;;0.95;;
22622;SDS011;11478;51.094;7.030;2023-04-03T10:53:05;1.27;;;0.80;;
22622;SDS011;11478;51.094;7.030;2023-04-03T10:55:56;2.70;;;1.10;;
22622;SDS011;11478;51.094;7.030;2023-04-03T10:58:58;2.55;;;0.90;;
22622;SDS011;11478;51.094;7.030;2023-04-03T11:01:48;2.75;;;1.00;;
22622;SDS011;11478;51.094;7.030;2023-04-03T11:04:39;0.98;;;0.63;;
22622;SDS011;11478;51.094;7.030;2023-04-03T11:07:42;1.35;;;0.88;;
22622;SDS011;11478;51.094;7.030;2023-04-03T11:10:15;1.52;;;0.90;;
22622;SDS011;11478;51.094;7.030;2023-04-03T11:13:14;2.78;;;1.00;;
22622;SDS011;11478;51.094;7.030;2023-04-03T11:15:53;1.58;;;0.90;;
22622;SDS011;11478;51.094;7.030;2023-04-03T11:24:25;2.78;;;0.98;;
22622;SDS011;11478;51.094;7.030;2023-04-03T11:26:58;2.47;;;1.10;;
22622;SDS011;11478;51.094;7.030;2023-04-03T11:29:36;4.07;;;1.10;;
22622;SDS011;11478;51.094;7.030;2023-04-03T11:34:58;2.05;;;1.10;;
22622;SDS011;11478;51.094;7.030;2023-04-03T11:40:32;2.40;;;1.00;;
22622;SDS011;11478;51.094;7.030;2023-04-03T11:53:38;4.55;;;1.35;;
22622;SDS011;11478;51.094;7.030;2023-04-03T12:01:46;2.05;;;0.98;;
22622;SDS011;11478;51.094;7.030;2023-04-03T12:04:13;1.65;;;1.10;;
22622;SDS011;11478;51.094;7.030;2023-04-03T12:09:56;1.48;;;0.77;;
22622;SDS011;11478;51.094;7.030;2023-04-03T12:21:23;283.27;;;39.35;;
22622;SDS011;11478;51.094;7.030;2023-04-03T12:23:59;2.08;;;1.05;;
22622;SDS011;11478;51.094;7.030;2023-04-03T12:46:43;2.25;;;1.05;;
22622;SDS011;11478;51.094;7.030;2023-04-03T12:49:33;3.08;;;1.23;;
22622;SDS011;11478;51.094;7.030;2023-04-03T12:52:41;3.22;;;1.05;;
22622;SDS011;11478;51.094;7.030;2023-04-03T12:55:14;3.35;;;1.13;;
22622;SDS011;11478;51.094;7.030;2023-04-03T12:57:53;2.75;;;1.08;;
22622;SDS011;11478;51.094;7.030;2023-04-03T13:00:27;2.95;;;1.10;;
22622;SDS011;11478;51.094;7.030;2023-04-03T13:02:58;3.15;;;1.15;;
22622;SDS011;11478;51.094;7.030;2023-04-03T13:05:28;1.83;;;1.00;;
22622;SDS011;11478;51.094;7.030;2023-04-03T13:07:59;2.05;;;1.00;;
22622;SDS011;11478;51.094;7.030;2023-04-03T13:10:43;1.95;;;1.00;;
22622;SDS011;11478;51.094;7.030;2023-04-03T13:13:23;2.65;;;1.27;;
22622;SDS011;11478;51.094;7.030;2023-04-03T13:15:50;2.47;;;1.27;;
22622;SDS011;11478;51.094;7.030;2023-04-03T13:18:25;2.75;;;1.30;;
22622;SDS011;11478;51.094;7.030;2023-04-03T13:21:04;2.53;;;1.13;;
22622;SDS011;11478;51.094;7.030;2023-04-03T13:23:40;3.08;;;1.40;;
22622;SDS011;11478;51.094;7.030;2023-04-03T13:26:10;3.85;;;1.52;;
22622;SDS011;11478;51.094;7.030;2023-04-03T13:28:40;2.20;;;1.00;;
22622;SDS011;11478;51.094;7.030;2023-04-03T13:36:40;2.65;;;1.10;;
22622;SDS011;11478;51.094;7.030;2023-04-03T13:41:39;2.67;;;0.90;;
22622;SDS011;11478;51.094;7.030;2023-04-03T13:46:52;4.32;;;1.17;;
22622;SDS011;11478;51.094;7.030;2023-04-03T13:52:43;4.20;;;1.40;;
22622;SDS011;11478;51.094;7.030;2023-04-03T13:55:29;2.47;;;1.25;;
22622;SDS011;11478;51.094;7.030;2023-04-03T14:00:48;3.47;;;1.38;;
22622;SDS011;11478;51.094;7.030;2023-04-03T14:05:48;3.20;;;1.33;;
22622;SDS011;11478;51.094;7.030;2023-04-03T14:08:14;3.33;;;1.45;;
22622;SDS011;11478;51.094;7.030;2023-04-03T14:10:43;1.90;;;1.30;;
22622;SDS011;11478;51.094;7.030;2023-04-03T14:13:13;3.60;;;1.30;;
22622;SDS011;11478;51.094;7.030;2023-04-03T14:15:41;3.47;;;1.20;;
22622;SDS011;11478;51.094;7.030;2023-04-03T14:18:15;2.97;;;1.30;;
22622;SDS011;11478;51.094;7.030;2023-04-03T14:20:45;4.53;;;1.58;;
22622;SDS011;11478;51.094;7.030;2023-04-03T14:23:11;3.47;;;1.35;;
22622;SDS011;11478;51.094;7.030;2023-04-03T14:25:38;4.60;;;1.40;;
22622;SDS011;11478;51.094;7.030;2023-04-03T14:28:16;2.65;;;1.20;;
22622;SDS011;11478;51.094;7.030;2023-04-03T14:30:47;2.50;;;1.27;;
22622;SDS011;11478;51.094;7.030;2023-04-03T14:33:20;2.92;;;1.33;;
22622;SDS011;11478;51.094;7.030;2023-04-03T14:35:49;4.00;;;1.40;;
22622;SDS011;11478;51.094;7.030;2023-04-03T14:40:57;5.13;;;1.45;;
22622;SDS011;11478;51.094;7.030;2023-04-03T14:43:23;8.77;;;1.40;;
22622;SDS011;11478;51.094;7.030;2023-04-03T14:45:56;3.15;;;1.38;;
22622;SDS011;11478;51.094;7.030;2023-04-03T14:48:23;4.60;;;1.60;;
22622;SDS011;11478;51.094;7.030;2023-04-03T14:50:54;3.70;;;1.35;;
22622;SDS011;11478;51.094;7.030;2023-04-03T14:53:28;5.18;;;1.40;;
22622;SDS011;11478;51.094;7.030;2023-04-03T14:55:55;2.65;;;1.33;;
22622;SDS011;11478;51.094;7.030;2023-04-03T14:58:24;2.58;;;1.40;;
22622;SDS011;11478;51.094;7.030;2023-04-03T15:00:52;4.13;;;1.95;;
22622;SDS011;11478;51.094;7.030;2023-04-03T15:03:19;3.13;;;1.40;;
22622;SDS011;11478;51.094;7.030;2023-04-03T15:05:46;2.92;;;1.40;;
22622;SDS011;11478;51.094;7.030;2023-04-03T15:08:21;3.45;;;1.35;;
22622;SDS011;11478;51.094;7.030;2023-04-03T15:10:49;2.85;;;1.42;;
22622;SDS011;11478;51.094;7.030;2023-04-03T15:13:17;3.33;;;1.30;;
22622;SDS011;11478;51.094;7.030;2023-04-03T15:15:45;3.70;;;1.40;;
22622;SDS011;11478;51.094;7.030;2023-04-03T15:18:27;4.53;;;1.42;;
22622;SDS011;11478;51.094;7.030;2023-04-03T15:21:02;4.07;;;1.25;;
22622;SDS011;11478;51.094;7.030;2023-04-03T15:23:37;3.47;;;1.50;;
22622;SDS011;11478;51.094;7.030;2023-04-03T15:26:03;4.40;;;1.38;;
22622;SDS011;11478;51.094;7.030;2023-04-03T15:28:34;3.03;;;1.60;;
22622;SDS011;11478;51.094;7.030;2023-04-03T15:31:05;4.82;;;1.63;;
22622;SDS011;11478;51.094;7.030;2023-04-03T15:33:32;3.25;;;1.50;;
22622;SDS011;11478;51.094;7.030;2023-04-03T15:36:10;8.00;;;2.63;;
22622;SDS011;11478;51.094;7.030;2023-04-03T15:38:36;6.88;;;1.77;;
22622;SDS011;11478;51.094;7.030;2023-04-03T15:41:03;3.45;;;1.60;;
22622;SDS011;11478;51.094;7.030;2023-04-03T15:43:34;3.00;;;1.40;;
22622;SDS011;11478;51.094;7.030;2023-04-03T15:46:02;3.10;;;1.35;;
22622;SDS011;11478;51.094;7.030;2023-04-03T15:48:35;3.63;;;1.35;;
22622;SDS011;11478;51.094;7.030;2023-04-03T15:51:12;2.75;;;1.20;;
22622;SDS011;11478;51.094;7.030;2023-04-03T15:53:47;1.80;;;1.20;;
22622;SDS011;11478;51.094;7.030;2023-04-03T15:56:13;2.58;;;1.30;;
22622;SDS011;11478;51.094;7.030;2023-04-03T15:58:40;2.03;;;1.15;;
22622;SDS011;11478;51.094;7.030;2023-04-03T16:01:05;5.10;;;1.50;;
22622;SDS011;11478;51.094;7.030;2023-04-03T16:03:32;2.90;;;1.40;;
22622;SDS011;11478;51.094;7.030;2023-04-03T16:06:00;4.00;;;1.63;;
22622;SDS011;11478;51.094;7.030;2023-04-03T16:08:26;3.25;;;1.33;;
22622;SDS011;11478;51.094;7.030;2023-04-03T16:10:54;3.55;;;1.30;;
22622;SDS011;11478;51.094;7.030;2023-04-03T16:13:20;4.28;;;1.85;;
22622;SDS011;11478;51.094;7.030;2023-04-03T16:18:16;3.05;;;1.17;;
22622;SDS011;11478;51.094;7.030;2023-04-03T16:20:44;4.03;;;1.17;;
22622;SDS011;11478;51.094;7.030;2023-04-03T16:23:10;6.03;;;3.00;;
22622;SDS011;11478;51.094;7.030;2023-04-03T16:25:39;3.50;;;2.17;;
22622;SDS011;11478;51.094;7.030;2023-04-03T16:28:04;3.92;;;1.75;;
22622;SDS011;11478;51.094;7.030;2023-04-03T16:30:31;3.08;;;1.50;;
22622;SDS011;11478;51.094;7.030;2023-04-03T16:32:58;2.38;;;1.25;;
22622;SDS011;11478;51.094;7.030;2023-04-03T16:35:29;2.75;;;1.30;;
22622;SDS011;11478;51.094;7.030;2023-04-03T16:37:55;3.17;;;1.30;;
22622;SDS011;11478;51.094;7.030;2023-04-03T16:40:21;4.13;;;1.50;;
22622;SDS011;11478;51.094;7.030;2023-04-03T16:42:54;4.93;;;1.50;;
22622;SDS011;11478;51.094;7.030;2023-04-03T16:45:20;3.40;;;1.40;;
22622;SDS011;11478;51.094;7.030;2023-04-03T16:47:48;2.42;;;1.20;;
22622;SDS011;11478;51.094;7.030;2023-04-03T16:50:14;3.30;;;1.65;;
22622;SDS011;11478;51.094;7.030;2023-04-03T16:55:12;11.70;;;5.38;;
22622;SDS011;11478;51.094;7.030;2023-04-03T16:57:41;4.72;;;2.13;;
22622;SDS011;11478;51.094;7.030;2023-04-03T17:00:07;3.58;;;1.90;;
22622;SDS011;11478;51.094;7.030;2023-04-03T17:02:34;4.75;;;1.50;;
22622;SDS011;11478;51.094;7.030;2023-04-03T17:05:05;6.25;;;2.25;;
22622;SDS011;11478;51.094;7.030;2023-04-03T17:07:32;8.45;;;1.98;;
22622;SDS011;11478;51.094;7.030;2023-04-03T17:10:06;5.15;;;1.88;;
22622;SDS011;11478;51.094;7.030;2023-04-03T17:12:32;4.28;;;1.73;;
22622;SDS011;11478;51.094;7.030;2023-04-03T17:14:59;24.40;;;12.57;;
22622;SDS011;11478;51.094;7.030;2023-04-03T17:17:25;3.80;;;1.90;;
22622;SDS011;11478;51.094;7.030;2023-04-03T17:20:04;6.00;;;2.47;;
22622;SDS011;11478;51.094;7.030;2023-04-03T17:22:30;4.43;;;1.70;;
22622;SDS011;11478;51.094;7.030;2023-04-03T17:24:58;11.95;;;8.07;;
22622;SDS011;11478;51.094;7.030;2023-04-03T17:27:24;9.05;;;6.30;;
22622;SDS011;11478;51.094;7.030;2023-04-03T17:29:50;10.52;;;6.70;;
22622;SDS011;11478;51.094;7.030;2023-04-03T17:32:16;6.43;;;4.30;;
22622;SDS011;11478;51.094;7.030;2023-04-03T17:34:56;5.78;;;3.20;;
22622;SDS011;11478;51.094;7.030;2023-04-03T17:37:22;4.47;;;2.00;;
22622;SDS011;11478;51.094;7.030;2023-04-03T17:39:47;4.40;;;2.00;;
22622;SDS011;11478;51.094;7.030;2023-04-03T17:42:13;5.60;;;1.80;;
22622;SDS011;11478;51.094;7.030;2023-04-03T17:44:42;7.30;;;1.77;;
22622;SDS011;11478;51.094;7.030;2023-04-03T17:47:08;4.25;;;1.50;;